Richmond South's Hourly Summary for Monday, May 14, 2018
Hour Temp
(f)
RH
(%)
Solar Rad.
(MJ/m2)
Rainfall
(in)
Wind
(mph)
5/14/2018 12:00 AM 75 86 0 0 4.79
5/14/2018 1:00 AM 74 90 0 0 2.76
5/14/2018 2:00 AM 73 91 0 0 0
5/14/2018 3:00 AM 72 92 0 0 0.86
5/14/2018 4:00 AM 74 92 0 0 4.81
5/14/2018 5:00 AM 74 91 0 0 5.88
5/14/2018 6:00 AM 73 91 0 0 4.36
5/14/2018 7:00 AM 73 91 0.05 0 5.53
5/14/2018 8:00 AM 75 84 0.32 0 3.88
5/14/2018 9:00 AM 77 82 0.6 0 3.85
5/14/2018 10:00 AM 79 71 1.26 0 5.6
5/14/2018 11:00 AM 80 61 1.17 0 5.44
5/14/2018 12:00 PM 84 53 2.27 0 4.04
5/14/2018 1:00 PM 86 47 2.65 0 4.69
5/14/2018 2:00 PM 88 41 2.66 0 6.92
5/14/2018 3:00 PM 89 40 2.21 0 7.05
5/14/2018 4:00 PM 90 34 2.09 0 8.71
5/14/2018 5:00 PM 88 39 1.35 0 10.12
5/14/2018 6:00 PM 86 43 1.13 0 9.86
5/14/2018 7:00 PM 85 37 0.93 0 8.99
5/14/2018 8:00 PM 82 55 0.28 0 9.31
5/14/2018 9:00 PM 78 66 0 0 5.73
5/14/2018 10:00 PM 75 73 0 0 3.78
5/14/2018 11:00 PM 72 79 0 0 1.19
Data Summary 79 67 18.97 0.00 5.34